createdAt,value
2018-12-31T00:02:41.332Z,6.50
2018-12-31T00:05:15.289Z,6.50
2018-12-31T00:07:57.933Z,6.40
2018-12-31T00:10:57.561Z,6.40
2018-12-31T00:13:34.812Z,6.30
2018-12-31T00:16:26.762Z,6.20
2018-12-31T00:19:10.017Z,6.10
2018-12-31T00:21:45.985Z,6.00
2018-12-31T00:24:29.058Z,5.90
2018-12-31T00:27:14.537Z,5.80
2018-12-31T00:30:08.398Z,5.70
2018-12-31T00:32:51.498Z,5.60
2018-12-31T00:35:28.523Z,5.60
2018-12-31T00:38:11.446Z,5.50
2018-12-31T00:40:48.686Z,5.40
2018-12-31T00:43:28.387Z,5.30
2018-12-31T00:46:07.121Z,5.20
2018-12-31T00:48:41.304Z,5.10
2018-12-31T00:51:23.306Z,5.10
2018-12-31T00:54:01.179Z,5.00
2018-12-31T00:56:35.449Z,4.90
2018-12-31T00:59:14.074Z,4.80
2018-12-31T01:01:58.944Z,4.70
2018-12-31T01:04:36.330Z,4.60
2018-12-31T01:07:14.001Z,4.60
2018-12-31T01:09:49.456Z,4.50
2018-12-31T01:12:25.119Z,4.50
2018-12-31T01:15:04.506Z,4.40
2018-12-31T01:17:40.390Z,4.30
2018-12-31T01:20:28.284Z,4.30
2018-12-31T01:23:04.406Z,4.30
2018-12-31T01:25:40.148Z,4.30
2018-12-31T01:28:18.207Z,4.20
2018-12-31T01:30:53.823Z,4.20
2018-12-31T01:33:27.877Z,4.10
2018-12-31T01:36:03.043Z,4.00
2018-12-31T01:38:41.834Z,4.00
2018-12-31T01:41:17.227Z,4.00
2018-12-31T01:43:51.443Z,4.00
2018-12-31T01:46:34.344Z,3.90
2018-12-31T01:49:08.362Z,3.90
2018-12-31T01:51:42.396Z,3.90
2018-12-31T01:54:18.990Z,3.90
2018-12-31T01:56:57.824Z,3.90
2018-12-31T01:59:31.883Z,3.90
2018-12-31T02:02:08.401Z,3.90
2018-12-31T02:04:49.809Z,3.90
2018-12-31T02:07:26.835Z,3.90
2018-12-31T02:10:04.167Z,3.90
2018-12-31T02:12:43.340Z,4.00
2018-12-31T02:15:17.490Z,4.10
2018-12-31T02:17:53.606Z,4.20
2018-12-31T02:20:34.437Z,4.30
2018-12-31T02:23:08.594Z,4.40
2018-12-31T02:25:48.285Z,4.50
2018-12-31T02:28:24.421Z,4.50
2018-12-31T02:30:58.681Z,4.60
2018-12-31T02:33:44.140Z,4.60
2018-12-31T02:36:20.896Z,4.70
2018-12-31T02:39:03.803Z,4.70
2018-12-31T02:41:40.001Z,4.60
2018-12-31T02:44:15.611Z,4.60
2018-12-31T02:46:55.475Z,4.50
2018-12-31T02:49:30.581Z,4.50
2018-12-31T02:52:04.895Z,4.40
2018-12-31T02:54:39.251Z,4.30
2018-12-31T02:57:21.613Z,4.30
2018-12-31T02:59:55.732Z,4.20
2018-12-31T03:02:32.432Z,4.20
2018-12-31T03:05:16.025Z,4.30
2018-12-31T03:07:55.391Z,4.30
2018-12-31T03:10:47.113Z,4.40
2018-12-31T03:13:23.965Z,4.30
2018-12-31T03:15:57.849Z,4.30
2018-12-31T03:18:35.363Z,4.20
2018-12-31T03:21:09.538Z,4.10
2018-12-31T03:23:51.115Z,4.00
2018-12-31T03:26:27.420Z,3.90
2018-12-31T03:29:05.389Z,3.80
2018-12-31T03:31:39.452Z,3.80
2018-12-31T03:34:14.783Z,3.70
2018-12-31T03:36:52.111Z,3.60
2018-12-31T03:39:30.155Z,3.50
2018-12-31T03:42:07.740Z,3.40
2018-12-31T03:44:42.884Z,3.30
2018-12-31T03:47:18.688Z,3.30
2018-12-31T03:49:52.881Z,3.30
2018-12-31T03:52:26.989Z,3.30
2018-12-31T03:55:00.899Z,3.30
2018-12-31T03:57:36.795Z,3.30
2018-12-31T04:00:14.572Z,3.20
2018-12-31T04:02:50.138Z,3.20
2018-12-31T04:05:24.123Z,3.20
2018-12-31T04:07:59.776Z,3.10
2018-12-31T04:10:38.207Z,3.10
2018-12-31T04:13:13.470Z,3.10
2018-12-31T04:15:47.720Z,3.10
2018-12-31T04:18:23.171Z,3.20
2018-12-31T04:21:07.618Z,3.30
2018-12-31T04:23:42.796Z,3.40
2018-12-31T04:26:16.930Z,3.50
2018-12-31T04:28:52.814Z,3.60
2018-12-31T04:31:28.154Z,3.60
2018-12-31T04:34:02.129Z,3.60
2018-12-31T04:36:36.289Z,3.70
2018-12-31T04:39:14.907Z,3.80
2018-12-31T04:41:51.635Z,3.80
2018-12-31T04:44:26.008Z,3.90
2018-12-31T04:47:01.082Z,3.90
2018-12-31T04:49:37.609Z,3.90
2018-12-31T04:52:15.811Z,3.90
2018-12-31T04:54:50.502Z,3.90
2018-12-31T04:57:30.703Z,3.80
2018-12-31T05:00:09.769Z,3.80
2018-12-31T05:02:52.307Z,3.70
2018-12-31T05:05:27.872Z,3.60
2018-12-31T05:08:06.965Z,3.50
2018-12-31T05:10:50.962Z,3.50
2018-12-31T05:13:35.024Z,3.40
2018-12-31T05:16:09.189Z,3.30
2018-12-31T05:18:45.015Z,3.20
2018-12-31T05:21:26.908Z,3.20
2018-12-31T05:24:04.464Z,3.10
2018-12-31T05:26:45.860Z,3.00
2018-12-31T05:29:22.825Z,3.00
2018-12-31T05:31:57.179Z,3.00
2018-12-31T05:34:35.696Z,2.90
2018-12-31T05:37:12.623Z,2.80
2018-12-31T05:39:48.240Z,2.80
2018-12-31T05:42:26.840Z,2.80
2018-12-31T05:45:02.468Z,2.70
2018-12-31T05:47:37.553Z,2.70
2018-12-31T05:50:12.203Z,2.60
2018-12-31T05:52:46.264Z,2.60
2018-12-31T05:55:23.387Z,2.50
2018-12-31T05:57:58.548Z,2.50
2018-12-31T06:00:37.551Z,2.50
2018-12-31T06:03:17.653Z,2.40
2018-12-31T06:06:02.371Z,2.40
2018-12-31T06:08:36.288Z,2.40
2018-12-31T06:11:11.039Z,2.40
2018-12-31T06:13:45.757Z,2.30
2018-12-31T06:16:21.498Z,2.30
2018-12-31T06:18:58.037Z,2.30
2018-12-31T06:21:40.178Z,2.20
2018-12-31T06:24:15.018Z,2.20
2018-12-31T06:26:51.261Z,2.10
2018-12-31T06:29:30.370Z,2.10
2018-12-31T06:32:09.180Z,2.00
2018-12-31T06:35:06.250Z,2.00
2018-12-31T06:37:41.493Z,2.00
2018-12-31T06:40:20.556Z,2.00
2018-12-31T06:42:57.799Z,2.00
2018-12-31T06:45:32.692Z,2.00
2018-12-31T06:48:07.746Z,1.90
2018-12-31T06:50:44.922Z,1.80
2018-12-31T06:53:33.194Z,1.80
2018-12-31T06:56:12.108Z,1.80
2018-12-31T06:58:57.100Z,1.70
2018-12-31T07:01:38.562Z,1.70
2018-12-31T07:04:15.567Z,1.70
2018-12-31T07:06:50.115Z,1.70
2018-12-31T07:09:27.347Z,1.70
2018-12-31T07:12:09.652Z,1.70
2018-12-31T07:14:48.083Z,1.70
2018-12-31T07:17:32.211Z,1.70
2018-12-31T07:20:10.082Z,1.80
2018-12-31T07:22:46.571Z,1.90
2018-12-31T07:25:26.894Z,2.00
2018-12-31T07:28:06.390Z,2.10
2018-12-31T07:30:50.368Z,2.20
2018-12-31T07:33:28.297Z,2.30
2018-12-31T07:36:10.026Z,2.30
2018-12-31T07:38:49.299Z,2.40
2018-12-31T07:41:28.901Z,2.40
2018-12-31T07:44:06.819Z,2.40
2018-12-31T07:46:42.394Z,2.40
2018-12-31T07:49:20.341Z,2.40
2018-12-31T07:51:57.031Z,2.40
2018-12-31T07:54:34.255Z,2.50
2018-12-31T07:57:16.272Z,2.50
2018-12-31T07:59:56.390Z,2.50
2018-12-31T08:02:38.225Z,2.50
2018-12-31T08:05:14.333Z,2.50
2018-12-31T08:07:56.236Z,2.40
2018-12-31T08:10:32.727Z,2.30
2018-12-31T08:13:11.712Z,2.30
2018-12-31T08:15:47.694Z,2.30
2018-12-31T08:18:36.957Z,2.20
2018-12-31T08:21:19.677Z,2.20
2018-12-31T08:23:54.194Z,2.10
2018-12-31T08:26:29.540Z,2.10
2018-12-31T08:29:04.184Z,2.00
2018-12-31T08:31:40.379Z,2.00
2018-12-31T08:34:21.534Z,1.90
2018-12-31T08:37:02.813Z,1.90
2018-12-31T08:39:40.774Z,1.80
2018-12-31T08:42:21.942Z,1.70
2018-12-31T08:44:57.077Z,1.70
2018-12-31T08:47:33.497Z,1.60
2018-12-31T08:50:09.287Z,1.50
2018-12-31T08:52:48.157Z,1.40
2018-12-31T08:55:23.874Z,1.30
2018-12-31T08:58:00.669Z,1.30
2018-12-31T09:00:36.410Z,1.20
2018-12-31T09:03:13.548Z,1.10
2018-12-31T09:05:51.482Z,1.10
2018-12-31T09:08:36.873Z,1.00
2018-12-31T09:11:15.226Z,1.00
2018-12-31T09:14:03.796Z,1.00
2018-12-31T09:16:36.809Z,1.00
2018-12-31T09:19:12.353Z,0.90
2018-12-31T09:21:50.971Z,0.90
2018-12-31T09:24:28.595Z,0.90
2018-12-31T09:27:05.035Z,0.80
2018-12-31T09:29:53.794Z,0.70
2018-12-31T09:32:29.895Z,0.70
2018-12-31T09:35:09.762Z,0.70
2018-12-31T09:37:45.659Z,0.70
2018-12-31T09:40:26.343Z,0.70
2018-12-31T09:43:03.099Z,0.70
2018-12-31T09:45:38.686Z,0.80
2018-12-31T09:48:14.490Z,0.90
2018-12-31T09:50:55.532Z,0.90
2018-12-31T09:53:33.393Z,0.90
2018-12-31T09:56:10.692Z,1.00
2018-12-31T09:58:47.258Z,1.00
2018-12-31T10:01:23.655Z,1.00
2018-12-31T10:04:01.882Z,1.10
2018-12-31T10:06:38.366Z,1.20
2018-12-31T10:09:14.389Z,1.30
2018-12-31T10:11:53.294Z,1.40
2018-12-31T10:14:28.808Z,1.40
2018-12-31T10:17:06.724Z,1.40
2018-12-31T10:19:49.414Z,1.50
2018-12-31T10:22:24.947Z,1.50
2018-12-31T10:25:07.209Z,1.40
2018-12-31T10:27:43.654Z,1.30
2018-12-31T10:30:22.204Z,1.20
2018-12-31T10:32:56.326Z,1.10
2018-12-31T10:35:31.309Z,1.10
2018-12-31T10:38:17.558Z,1.10
2018-12-31T10:40:54.360Z,1.10
2018-12-31T10:43:30.058Z,1.00
2018-12-31T10:46:08.265Z,1.00
2018-12-31T10:48:47.142Z,1.10
2018-12-31T10:51:23.040Z,1.10
2018-12-31T10:53:59.350Z,1.10
2018-12-31T10:56:35.754Z,1.10
2018-12-31T10:59:12.928Z,1.10
2018-12-31T11:01:49.779Z,1.10
2018-12-31T11:04:30.341Z,1.20
2018-12-31T11:07:09.177Z,1.20
2018-12-31T11:09:47.991Z,1.20
2018-12-31T11:12:24.224Z,1.20
2018-12-31T11:15:02.417Z,1.30
2018-12-31T11:17:37.615Z,1.20
2018-12-31T11:20:15.356Z,1.30
2018-12-31T11:22:49.618Z,1.20
2018-12-31T11:25:28.157Z,1.30
2018-12-31T11:28:06.578Z,1.30
2018-12-31T11:30:43.606Z,1.20
2018-12-31T11:33:19.899Z,1.20
2018-12-31T11:36:00.790Z,1.20
2018-12-31T11:38:38.273Z,1.20
2018-12-31T11:41:16.758Z,1.10
2018-12-31T11:43:55.679Z,1.00
2018-12-31T11:46:31.499Z,1.00
2018-12-31T11:49:09.082Z,1.00
2018-12-31T11:51:43.189Z,1.00
2018-12-31T11:54:21.627Z,1.00
2018-12-31T11:56:58.781Z,1.00
2018-12-31T11:59:35.857Z,0.90
2018-12-31T12:02:23.361Z,0.90
2018-12-31T12:04:52.349Z,0.80
2018-12-31T12:07:29.025Z,0.90
2018-12-31T12:10:07.898Z,0.80
2018-12-31T12:12:42.474Z,0.80
2018-12-31T12:15:19.730Z,0.90
2018-12-31T12:17:57.415Z,0.90
2018-12-31T12:20:33.811Z,0.90
2018-12-31T12:23:10.713Z,0.80
2018-12-31T12:25:47.771Z,0.60
2018-12-31T12:28:25.933Z,0.60
2018-12-31T12:31:03.487Z,0.60
2018-12-31T12:33:41.107Z,0.60
2018-12-31T12:36:24.421Z,0.70
2018-12-31T12:39:04.975Z,0.70
2018-12-31T12:41:40.564Z,0.70
2018-12-31T12:44:18.110Z,0.60
2018-12-31T12:46:54.560Z,0.50
2018-12-31T12:49:32.985Z,0.50
2018-12-31T12:52:06.856Z,0.50
2018-12-31T12:54:46.095Z,0.40
2018-12-31T12:57:30.531Z,0.40
2018-12-31T13:00:08.305Z,0.40
2018-12-31T13:02:46.955Z,0.30
2018-12-31T13:05:23.058Z,0.30
2018-12-31T13:08:00.686Z,0.30
2018-12-31T13:10:38.781Z,0.20
2018-12-31T13:13:17.974Z,0.20
2018-12-31T13:15:56.055Z,0.30
2018-12-31T13:18:34.817Z,0.30
2018-12-31T13:21:08.901Z,0.30
2018-12-31T13:23:47.730Z,0.30
2018-12-31T13:26:30.238Z,0.40
2018-12-31T13:29:09.884Z,0.40
2018-12-31T13:31:56.345Z,0.40
2018-12-31T13:34:33.543Z,0.50
2018-12-31T13:37:11.409Z,0.50
2018-12-31T13:39:46.260Z,0.60
2018-12-31T13:42:21.523Z,0.60
2018-12-31T13:45:01.335Z,0.60
2018-12-31T13:47:38.232Z,0.60
2018-12-31T13:50:16.985Z,0.50
2018-12-31T13:52:54.068Z,0.50
2018-12-31T13:55:30.925Z,0.50
2018-12-31T13:58:06.900Z,0.60
2018-12-31T14:00:45.674Z,0.60
2018-12-31T14:03:22.016Z,0.60
2018-12-31T14:06:00.855Z,0.60
2018-12-31T14:08:35.371Z,0.70
2018-12-31T14:11:11.625Z,0.70
2018-12-31T14:13:45.471Z,0.70
2018-12-31T14:16:22.194Z,0.70
2018-12-31T14:18:58.578Z,0.80
2018-12-31T14:21:34.105Z,0.80
2018-12-31T14:24:09.066Z,0.90
2018-12-31T14:26:44.944Z,0.90
2018-12-31T14:29:37.083Z,0.90
2018-12-31T14:32:11.753Z,0.90
2018-12-31T14:34:46.647Z,0.90
2018-12-31T14:37:20.612Z,0.90
2018-12-31T14:39:55.511Z,0.90
2018-12-31T14:42:30.285Z,0.90
2018-12-31T14:45:05.077Z,0.80
2018-12-31T14:47:39.052Z,0.80
2018-12-31T14:50:14.214Z,0.80
2018-12-31T14:52:48.922Z,0.80
2018-12-31T14:55:23.047Z,0.80
2018-12-31T14:57:58.618Z,0.80
2018-12-31T15:00:33.886Z,0.80
2018-12-31T15:03:10.737Z,0.80
2018-12-31T15:05:46.093Z,0.90
2018-12-31T15:08:20.050Z,0.90
2018-12-31T15:10:54.891Z,0.90
2018-12-31T15:13:29.377Z,0.90
2018-12-31T15:16:04.142Z,1.00
2018-12-31T15:18:39.156Z,1.00
2018-12-31T15:21:15.064Z,1.00
2018-12-31T15:23:49.546Z,1.00
2018-12-31T15:26:26.453Z,1.00
2018-12-31T15:29:02.930Z,1.00
2018-12-31T15:31:37.235Z,1.00
2018-12-31T15:34:12.231Z,1.00
2018-12-31T15:36:46.285Z,1.00
2018-12-31T15:39:20.361Z,0.90
2018-12-31T15:41:54.284Z,0.90
2018-12-31T15:44:28.303Z,1.00
2018-12-31T15:47:05.558Z,1.00
2018-12-31T15:49:58.477Z,1.00
2018-12-31T15:52:33.280Z,1.00
2018-12-31T15:55:08.101Z,1.00
2018-12-31T15:57:43.965Z,1.00
2018-12-31T16:00:18.985Z,1.00
2018-12-31T16:02:53.133Z,1.00
2018-12-31T16:05:28.633Z,1.00
2018-12-31T16:08:04.590Z,0.90
2018-12-31T16:10:41.950Z,1.00
2018-12-31T16:13:16.882Z,1.00
2018-12-31T16:15:52.773Z,1.00
2018-12-31T16:18:28.821Z,1.00
2018-12-31T16:21:02.744Z,1.10
2018-12-31T16:23:38.363Z,1.10
2018-12-31T16:26:12.350Z,1.10
2018-12-31T16:28:46.430Z,1.10
2018-12-31T16:31:24.586Z,1.00
2018-12-31T16:34:01.074Z,1.00
2018-12-31T16:36:37.580Z,0.80
2018-12-31T16:39:14.155Z,0.90
2018-12-31T16:41:48.571Z,0.80
2018-12-31T16:44:22.625Z,0.90
2018-12-31T16:46:56.790Z,1.00
2018-12-31T16:49:31.532Z,1.10
2018-12-31T16:52:07.916Z,1.30
2018-12-31T16:54:41.790Z,1.30
2018-12-31T16:57:16.003Z,1.40
2018-12-31T16:59:50.081Z,1.50
2018-12-31T17:02:24.932Z,1.60
2018-12-31T17:05:00.822Z,1.60
2018-12-31T17:07:34.842Z,1.70
2018-12-31T17:10:09.690Z,1.70
2018-12-31T17:12:44.487Z,1.70
2018-12-31T17:15:18.461Z,1.70
2018-12-31T17:17:52.428Z,1.70
2018-12-31T17:20:26.544Z,1.70
2018-12-31T17:23:01.872Z,1.70
2018-12-31T17:25:37.928Z,1.60
2018-12-31T17:28:12.547Z,1.60
2018-12-31T17:30:47.125Z,1.60
2018-12-31T17:33:20.928Z,1.70
2018-12-31T17:35:54.997Z,1.80
2018-12-31T17:38:47.042Z,1.80
2018-12-31T17:41:23.736Z,1.90
2018-12-31T17:43:58.105Z,2.00
2018-12-31T17:46:33.539Z,2.00
2018-12-31T17:49:07.594Z,2.00
2018-12-31T17:51:42.731Z,2.00
2018-12-31T17:54:26.248Z,2.00
2018-12-31T17:57:01.973Z,2.00
2018-12-31T17:59:38.819Z,2.10
2018-12-31T18:02:13.516Z,2.10
2018-12-31T18:04:49.595Z,2.10
2018-12-31T18:07:25.179Z,2.10
2018-12-31T18:09:59.458Z,2.20
2018-12-31T18:12:33.657Z,2.10
2018-12-31T18:15:10.753Z,2.10
2018-12-31T18:17:46.173Z,2.00
2018-12-31T18:20:24.829Z,2.10
2018-12-31T18:22:59.943Z,2.10
2018-12-31T18:25:34.722Z,1.90
2018-12-31T18:28:10.350Z,2.00
2018-12-31T18:30:47.052Z,1.90
2018-12-31T18:33:26.731Z,2.00
2018-12-31T18:36:02.844Z,2.10
2018-12-31T18:38:36.999Z,2.10
2018-12-31T18:41:11.207Z,2.20
2018-12-31T18:43:45.136Z,2.10
2018-12-31T18:46:20.066Z,2.20
2018-12-31T18:48:54.518Z,2.10
2018-12-31T18:51:30.873Z,2.00
2018-12-31T18:54:04.725Z,2.00
2018-12-31T18:56:39.088Z,2.10
2018-12-31T18:59:13.391Z,2.00
2018-12-31T19:01:49.020Z,2.10
2018-12-31T19:04:25.272Z,2.10
2018-12-31T19:06:59.649Z,2.30
2018-12-31T19:09:36.614Z,2.40
2018-12-31T19:12:10.591Z,2.50
2018-12-31T19:14:44.498Z,2.60
2018-12-31T19:17:18.467Z,2.60
2018-12-31T19:20:10.844Z,2.50
2018-12-31T19:22:45.265Z,2.50
2018-12-31T19:25:21.235Z,2.40
2018-12-31T19:27:55.091Z,2.40
2018-12-31T19:30:31.615Z,2.40
2018-12-31T19:33:08.921Z,2.40
2018-12-31T19:35:44.447Z,2.50
2018-12-31T19:38:18.398Z,2.30
2018-12-31T19:40:53.490Z,2.20
2018-12-31T19:43:28.370Z,2.30
2018-12-31T19:46:02.434Z,2.50
2018-12-31T19:48:38.167Z,2.60
2018-12-31T19:51:15.127Z,2.70
2018-12-31T19:53:50.191Z,2.60
2018-12-31T19:56:25.404Z,2.60
2018-12-31T19:58:59.304Z,2.70
2018-12-31T20:01:34.556Z,2.80
2018-12-31T20:04:11.829Z,2.80
2018-12-31T20:06:46.791Z,2.80
2018-12-31T20:09:22.295Z,2.90
2018-12-31T20:11:58.051Z,2.80
2018-12-31T20:14:31.959Z,2.90
2018-12-31T20:17:12.147Z,2.70
2018-12-31T20:19:46.051Z,2.80
2018-12-31T20:22:20.682Z,2.90
2018-12-31T20:24:56.705Z,2.90
2018-12-31T20:27:33.847Z,2.90
2018-12-31T20:30:08.005Z,2.80
2018-12-31T20:32:44.188Z,2.90
2018-12-31T20:35:20.503Z,2.90
2018-12-31T20:37:54.726Z,3.00
2018-12-31T20:40:30.995Z,3.10
2018-12-31T20:43:05.095Z,3.20
2018-12-31T20:45:39.296Z,3.30
2018-12-31T20:48:13.307Z,3.40
2018-12-31T20:50:47.943Z,3.20
2018-12-31T20:53:23.754Z,3.10
2018-12-31T20:55:57.896Z,3.30
2018-12-31T20:58:32.061Z,3.30
2018-12-31T21:01:06.134Z,3.40
2018-12-31T21:03:40.076Z,3.40
2018-12-31T21:06:15.804Z,3.60
2018-12-31T21:08:50.534Z,3.70
2018-12-31T21:11:24.794Z,3.70
2018-12-31T21:13:59.229Z,3.70
2018-12-31T21:16:33.318Z,3.80
2018-12-31T21:19:07.231Z,3.80
2018-12-31T21:21:42.701Z,3.80
2018-12-31T21:24:17.654Z,3.90
2018-12-31T21:26:56.196Z,3.80
2018-12-31T21:29:35.126Z,3.80
2018-12-31T21:32:12.109Z,3.90
2018-12-31T21:34:45.995Z,3.90
2018-12-31T21:37:21.930Z,4.00
2018-12-31T21:39:56.065Z,4.20
2018-12-31T21:42:31.967Z,4.30
2018-12-31T21:45:07.154Z,4.40
2018-12-31T21:47:46.662Z,4.50
2018-12-31T21:50:22.333Z,4.50
2018-12-31T21:53:01.663Z,4.50
2018-12-31T21:55:38.377Z,4.60
2018-12-31T21:58:12.784Z,4.60
2018-12-31T22:00:54.313Z,4.60
2018-12-31T22:03:38.136Z,4.60
2018-12-31T22:06:10.327Z,4.70
2018-12-31T22:09:03.794Z,4.80
2018-12-31T22:11:39.990Z,4.90
2018-12-31T22:14:22.376Z,5.00
2018-12-31T22:16:57.876Z,5.10
2018-12-31T22:19:38.684Z,5.20
2018-12-31T22:22:16.729Z,5.20
2018-12-31T22:25:06.612Z,5.20
2018-12-31T22:27:51.480Z,5.30
2018-12-31T22:30:37.500Z,5.30
2018-12-31T22:33:11.357Z,5.40
2018-12-31T22:35:45.346Z,5.40
2018-12-31T22:38:42.800Z,5.50
2018-12-31T22:41:19.161Z,5.60
2018-12-31T22:43:54.909Z,5.60
2018-12-31T22:46:39.721Z,5.70
2018-12-31T22:49:23.544Z,5.70
2018-12-31T22:51:59.874Z,5.90
2018-12-31T22:54:46.965Z,5.90
2018-12-31T22:57:27.695Z,6.00
2018-12-31T23:00:05.957Z,6.00
2018-12-31T23:02:49.031Z,5.80
2018-12-31T23:05:24.084Z,5.60
2018-12-31T23:10:57.251Z,5.40
2018-12-31T23:13:40.770Z,5.30
2018-12-31T23:16:26.895Z,5.50
2018-12-31T23:19:18.898Z,5.50
2018-12-31T23:22:10.987Z,5.70
2018-12-31T23:24:51.095Z,5.60
2018-12-31T23:27:43.415Z,5.60
2018-12-31T23:30:17.278Z,5.40
2018-12-31T23:33:00.206Z,5.30
2018-12-31T23:35:51.522Z,5.10
2018-12-31T23:38:30.038Z,4.90
2018-12-31T23:41:10.906Z,4.70
2018-12-31T23:43:44.739Z,4.60
2018-12-31T23:46:30.745Z,4.50
2018-12-31T23:49:04.835Z,4.40
2018-12-31T23:51:57.670Z,4.20
2018-12-31T23:54:32.980Z,4.00
2018-12-31T23:57:06.837Z,3.90
2018-12-31T23:59:40.765Z,3.80
